sensor_id;sensor_type;location;lat;lon;timestamp;temperature;humidity
30572;DHT22;17348;50.948;10.696;2023-04-19T00:03:00;9.20;99.90
30572;DHT22;17348;50.948;10.696;2023-04-19T00:06:04;9.20;99.90
30572;DHT22;17348;50.948;10.696;2023-04-19T00:09:08;9.10;99.90
30572;DHT22;17348;50.948;10.696;2023-04-19T00:12:10;9.10;99.90
30572;DHT22;17348;50.948;10.696;2023-04-19T00:15:12;9.00;99.90
30572;DHT22;17348;50.948;10.696;2023-04-19T00:18:15;9.00;99.90
30572;DHT22;17348;50.948;10.696;2023-04-19T00:21:18;8.90;99.90
30572;DHT22;17348;50.948;10.696;2023-04-19T00:24:21;8.90;99.90
30572;DHT22;17348;50.948;10.696;2023-04-19T00:27:23;8.90;99.90
30572;DHT22;17348;50.948;10.696;2023-04-19T00:30:25;8.90;99.90
30572;DHT22;17348;50.948;10.696;2023-04-19T00:33:28;8.90;99.90
30572;DHT22;17348;50.948;10.696;2023-04-19T00:36:31;8.90;99.90
30572;DHT22;17348;50.948;10.696;2023-04-19T00:39:34;8.90;99.90
30572;DHT22;17348;50.948;10.696;2023-04-19T00:42:36;8.80;99.90
30572;DHT22;17348;50.948;10.696;2023-04-19T00:45:38;8.80;99.90
30572;DHT22;17348;50.948;10.696;2023-04-19T00:48:41;8.80;99.90
30572;DHT22;17348;50.948;10.696;2023-04-19T00:51:45;8.80;99.90
30572;DHT22;17348;50.948;10.696;2023-04-19T00:54:47;8.70;99.90
30572;DHT22;17348;50.948;10.696;2023-04-19T00:57:50;8.80;99.90
30572;DHT22;17348;50.948;10.696;2023-04-19T01:00:52;8.80;99.90
30572;DHT22;17348;50.948;10.696;2023-04-19T01:03:55;8.80;99.90
30572;DHT22;17348;50.948;10.696;2023-04-19T01:06:58;8.80;99.90
30572;DHT22;17348;50.948;10.696;2023-04-19T01:10:03;8.80;99.90
30572;DHT22;17348;50.948;10.696;2023-04-19T01:13:06;8.80;99.90
30572;DHT22;17348;50.948;10.696;2023-04-19T01:16:08;8.90;99.90
30572;DHT22;17348;50.948;10.696;2023-04-19T01:19:10;8.80;99.90
30572;DHT22;17348;50.948;10.696;2023-04-19T01:22:17;8.80;99.90
30572;DHT22;17348;50.948;10.696;2023-04-19T01:25:20;8.80;99.90
30572;DHT22;17348;50.948;10.696;2023-04-19T01:28:22;8.80;99.90
30572;DHT22;17348;50.948;10.696;2023-04-19T01:31:25;8.70;99.90
30572;DHT22;17348;50.948;10.696;2023-04-19T01:34:27;8.70;99.90
30572;DHT22;17348;50.948;10.696;2023-04-19T01:37:34;8.70;99.90
30572;DHT22;17348;50.948;10.696;2023-04-19T01:40:36;8.60;99.90
30572;DHT22;17348;50.948;10.696;2023-04-19T01:43:38;8.60;99.90
30572;DHT22;17348;50.948;10.696;2023-04-19T01:46:40;8.60;99.90
30572;DHT22;17348;50.948;10.696;2023-04-19T01:49:43;8.60;99.90
30572;DHT22;17348;50.948;10.696;2023-04-19T01:52:47;8.50;99.90
30572;DHT22;17348;50.948;10.696;2023-04-19T01:55:49;8.50;99.90
30572;DHT22;17348;50.948;10.696;2023-04-19T01:58:51;8.50;99.90
30572;DHT22;17348;50.948;10.696;2023-04-19T02:01:54;8.50;99.90
30572;DHT22;17348;50.948;10.696;2023-04-19T02:04:56;8.40;99.90
30572;DHT22;17348;50.948;10.696;2023-04-19T02:08:00;8.40;99.90
30572;DHT22;17348;50.948;10.696;2023-04-19T02:11:05;8.40;99.90
30572;DHT22;17348;50.948;10.696;2023-04-19T02:14:08;8.30;99.90
30572;DHT22;17348;50.948;10.696;2023-04-19T02:17:10;8.30;99.90
30572;DHT22;17348;50.948;10.696;2023-04-19T02:20:13;8.30;99.90
30572;DHT22;17348;50.948;10.696;2023-04-19T02:23:16;8.30;99.90
30572;DHT22;17348;50.948;10.696;2023-04-19T02:26:19;8.20;99.90
30572;DHT22;17348;50.948;10.696;2023-04-19T02:29:21;8.20;99.90
30572;DHT22;17348;50.948;10.696;2023-04-19T02:32:24;8.20;99.90
30572;DHT22;17348;50.948;10.696;2023-04-19T02:35:26;8.10;99.90
30572;DHT22;17348;50.948;10.696;2023-04-19T02:38:30;8.20;99.90
30572;DHT22;17348;50.948;10.696;2023-04-19T02:41:32;8.10;99.90
30572;DHT22;17348;50.948;10.696;2023-04-19T02:44:34;8.10;99.90
30572;DHT22;17348;50.948;10.696;2023-04-19T02:47:37;8.10;99.90
30572;DHT22;17348;50.948;10.696;2023-04-19T02:50:39;8.10;99.90
30572;DHT22;17348;50.948;10.696;2023-04-19T02:53:43;8.10;99.90
30572;DHT22;17348;50.948;10.696;2023-04-19T02:56:45;8.10;99.90
30572;DHT22;17348;50.948;10.696;2023-04-19T02:59:47;8.10;99.90
30572;DHT22;17348;50.948;10.696;2023-04-19T03:02:50;8.00;99.90
30572;DHT22;17348;50.948;10.696;2023-04-19T03:05:52;8.00;99.90
30572;DHT22;17348;50.948;10.696;2023-04-19T03:08:56;8.00;99.90
30572;DHT22;17348;50.948;10.696;2023-04-19T03:11:58;7.90;99.90
30572;DHT22;17348;50.948;10.696;2023-04-19T03:15:01;7.90;99.90
30572;DHT22;17348;50.948;10.696;2023-04-19T03:18:03;7.90;99.90
30572;DHT22;17348;50.948;10.696;2023-04-19T03:21:06;7.80;99.90
30572;DHT22;17348;50.948;10.696;2023-04-19T03:24:10;7.70;99.90
30572;DHT22;17348;50.948;10.696;2023-04-19T03:27:13;7.70;99.90
30572;DHT22;17348;50.948;10.696;2023-04-19T03:30:15;7.70;99.90
30572;DHT22;17348;50.948;10.696;2023-04-19T03:33:18;7.60;99.90
30572;DHT22;17348;50.948;10.696;2023-04-19T03:36:20;7.60;99.90
30572;DHT22;17348;50.948;10.696;2023-04-19T03:39:24;7.60;99.90
30572;DHT22;17348;50.948;10.696;2023-04-19T03:42:26;7.50;99.90
30572;DHT22;17348;50.948;10.696;2023-04-19T03:45:29;7.50;99.90
30572;DHT22;17348;50.948;10.696;2023-04-19T03:48:31;7.50;99.90
30572;DHT22;17348;50.948;10.696;2023-04-19T03:51:35;7.40;99.90
30572;DHT22;17348;50.948;10.696;2023-04-19T03:54:39;7.30;99.90
30572;DHT22;17348;50.948;10.696;2023-04-19T03:57:41;7.20;99.90
30572;DHT22;17348;50.948;10.696;2023-04-19T04:00:43;7.20;99.90
30572;DHT22;17348;50.948;10.696;2023-04-19T04:03:46;7.10;99.90
30572;DHT22;17348;50.948;10.696;2023-04-19T04:06:48;7.00;99.90
30572;DHT22;17348;50.948;10.696;2023-04-19T04:09:52;7.00;99.90
30572;DHT22;17348;50.948;10.696;2023-04-19T04:12:54;6.90;99.90
30572;DHT22;17348;50.948;10.696;2023-04-19T04:15:57;6.80;99.90
30572;DHT22;17348;50.948;10.696;2023-04-19T04:18:59;6.80;99.90
30572;DHT22;17348;50.948;10.696;2023-04-19T04:22:02;6.80;99.90
30572;DHT22;17348;50.948;10.696;2023-04-19T04:25:08;6.70;99.90
30572;DHT22;17348;50.948;10.696;2023-04-19T04:28:10;6.60;99.90
30572;DHT22;17348;50.948;10.696;2023-04-19T04:31:12;6.50;99.90
30572;DHT22;17348;50.948;10.696;2023-04-19T04:34:17;6.50;99.90
30572;DHT22;17348;50.948;10.696;2023-04-19T04:37:20;6.40;99.90
30572;DHT22;17348;50.948;10.696;2023-04-19T04:40:24;6.40;99.90
30572;DHT22;17348;50.948;10.696;2023-04-19T04:43:26;6.30;99.90
30572;DHT22;17348;50.948;10.696;2023-04-19T04:46:29;6.30;99.90
30572;DHT22;17348;50.948;10.696;2023-04-19T04:49:32;6.30;99.90
30572;DHT22;17348;50.948;10.696;2023-04-19T04:52:34;6.40;99.90
30572;DHT22;17348;50.948;10.696;2023-04-19T04:55:38;6.40;99.90
30572;DHT22;17348;50.948;10.696;2023-04-19T04:58:40;6.30;99.90
30572;DHT22;17348;50.948;10.696;2023-04-19T05:01:43;6.30;99.90
30572;DHT22;17348;50.948;10.696;2023-04-19T05:04:45;6.30;99.90
30572;DHT22;17348;50.948;10.696;2023-04-19T05:07:47;6.40;99.90
30572;DHT22;17348;50.948;10.696;2023-04-19T05:10:54;6.40;99.90
30572;DHT22;17348;50.948;10.696;2023-04-19T05:13:59;6.40;99.90
30572;DHT22;17348;50.948;10.696;2023-04-19T05:17:02;6.50;99.90
30572;DHT22;17348;50.948;10.696;2023-04-19T05:20:05;6.50;99.90
30572;DHT22;17348;50.948;10.696;2023-04-19T05:23:07;6.50;99.90
30572;DHT22;17348;50.948;10.696;2023-04-19T05:26:13;6.40;99.90
30572;DHT22;17348;50.948;10.696;2023-04-19T05:29:16;6.40;99.90
30572;DHT22;17348;50.948;10.696;2023-04-19T05:32:18;6.40;99.90
30572;DHT22;17348;50.948;10.696;2023-04-19T05:35:21;6.40;99.90
30572;DHT22;17348;50.948;10.696;2023-04-19T05:38:23;6.40;99.90
30572;DHT22;17348;50.948;10.696;2023-04-19T05:41:27;6.40;99.90
30572;DHT22;17348;50.948;10.696;2023-04-19T05:44:29;6.40;99.90
30572;DHT22;17348;50.948;10.696;2023-04-19T05:47:31;6.50;99.90
30572;DHT22;17348;50.948;10.696;2023-04-19T05:50:34;6.50;99.90
30572;DHT22;17348;50.948;10.696;2023-04-19T05:53:37;6.50;99.90
30572;DHT22;17348;50.948;10.696;2023-04-19T05:56:41;6.60;99.90
30572;DHT22;17348;50.948;10.696;2023-04-19T05:59:43;6.60;99.90
30572;DHT22;17348;50.948;10.696;2023-04-19T06:02:45;6.70;99.90
30572;DHT22;17348;50.948;10.696;2023-04-19T06:05:48;6.70;99.90
30572;DHT22;17348;50.948;10.696;2023-04-19T06:08:50;6.70;99.90
30572;DHT22;17348;50.948;10.696;2023-04-19T06:11:54;6.90;99.90
30572;DHT22;17348;50.948;10.696;2023-04-19T06:14:56;6.80;99.90
30572;DHT22;17348;50.948;10.696;2023-04-19T06:17:59;6.80;99.90
30572;DHT22;17348;50.948;10.696;2023-04-19T06:21:01;6.60;99.90
30572;DHT22;17348;50.948;10.696;2023-04-19T06:24:05;6.50;99.90
30572;DHT22;17348;50.948;10.696;2023-04-19T06:27:09;6.40;99.90
30572;DHT22;17348;50.948;10.696;2023-04-19T06:30:12;6.40;99.90
30572;DHT22;17348;50.948;10.696;2023-04-19T06:33:14;6.40;99.90
30572;DHT22;17348;50.948;10.696;2023-04-19T06:36:17;6.40;99.90
30572;DHT22;17348;50.948;10.696;2023-04-19T06:39:19;6.40;99.90
30572;DHT22;17348;50.948;10.696;2023-04-19T06:42:23;6.50;99.90
30572;DHT22;17348;50.948;10.696;2023-04-19T06:45:26;6.50;99.90
30572;DHT22;17348;50.948;10.696;2023-04-19T06:48:29;6.60;99.90
30572;DHT22;17348;50.948;10.696;2023-04-19T06:51:32;6.70;99.90
30572;DHT22;17348;50.948;10.696;2023-04-19T06:54:34;6.90;99.90
30572;DHT22;17348;50.948;10.696;2023-04-19T06:57:38;7.20;99.90
30572;DHT22;17348;50.948;10.696;2023-04-19T07:00:40;7.30;99.90
30572;DHT22;17348;50.948;10.696;2023-04-19T07:03:44;7.20;99.90
30572;DHT22;17348;50.948;10.696;2023-04-19T07:06:47;7.00;99.90
30572;DHT22;17348;50.948;10.696;2023-04-19T07:09:50;7.10;99.90
30572;DHT22;17348;50.948;10.696;2023-04-19T07:12:54;7.10;99.90
30572;DHT22;17348;50.948;10.696;2023-04-19T07:15:56;7.20;99.90
30572;DHT22;17348;50.948;10.696;2023-04-19T07:18:59;7.80;99.90
30572;DHT22;17348;50.948;10.696;2023-04-19T07:22:01;8.30;99.90
30572;DHT22;17348;50.948;10.696;2023-04-19T07:25:07;8.30;99.90
30572;DHT22;17348;50.948;10.696;2023-04-19T07:28:10;8.80;99.90
30572;DHT22;17348;50.948;10.696;2023-04-19T07:31:16;8.60;99.90
30572;DHT22;17348;50.948;10.696;2023-04-19T07:34:19;8.40;99.90
30572;DHT22;17348;50.948;10.696;2023-04-19T07:37:21;9.00;99.90
30572;DHT22;17348;50.948;10.696;2023-04-19T07:40:23;9.00;99.90
30572;DHT22;17348;50.948;10.696;2023-04-19T07:43:28;9.10;99.90
30572;DHT22;17348;50.948;10.696;2023-04-19T07:46:31;9.10;99.90
30572;DHT22;17348;50.948;10.696;2023-04-19T07:49:33;9.20;99.90
30572;DHT22;17348;50.948;10.696;2023-04-19T07:52:36;9.20;99.90
30572;DHT22;17348;50.948;10.696;2023-04-19T07:55:38;9.40;99.90
30572;DHT22;17348;50.948;10.696;2023-04-19T07:58:42;10.00;99.90
30572;DHT22;17348;50.948;10.696;2023-04-19T08:01:44;10.20;99.90
30572;DHT22;17348;50.948;10.696;2023-04-19T08:04:46;11.70;99.90
30572;DHT22;17348;50.948;10.696;2023-04-19T08:07:51;11.40;99.90
30572;DHT22;17348;50.948;10.696;2023-04-19T08:10:53;11.90;99.90
30572;DHT22;17348;50.948;10.696;2023-04-19T08:13:57;12.20;99.90
30572;DHT22;17348;50.948;10.696;2023-04-19T08:16:59;12.90;99.90
30572;DHT22;17348;50.948;10.696;2023-04-19T08:20:02;12.40;99.90
30572;DHT22;17348;50.948;10.696;2023-04-19T08:23:08;11.70;99.90
30572;DHT22;17348;50.948;10.696;2023-04-19T08:26:11;11.30;99.90
30572;DHT22;17348;50.948;10.696;2023-04-19T08:29:15;11.20;99.90
30572;DHT22;17348;50.948;10.696;2023-04-19T08:32:17;11.40;99.90
30572;DHT22;17348;50.948;10.696;2023-04-19T08:35:20;11.30;99.90
30572;DHT22;17348;50.948;10.696;2023-04-19T08:38:22;10.80;99.90
30572;DHT22;17348;50.948;10.696;2023-04-19T08:41:25;10.10;99.90
30572;DHT22;17348;50.948;10.696;2023-04-19T08:44:32;9.70;99.90
30572;DHT22;17348;50.948;10.696;2023-04-19T08:47:35;9.50;99.90
30572;DHT22;17348;50.948;10.696;2023-04-19T08:50:38;9.30;99.90
30572;DHT22;17348;50.948;10.696;2023-04-19T08:53:41;9.30;99.90
30572;DHT22;17348;50.948;10.696;2023-04-19T08:56:44;9.20;99.90
30572;DHT22;17348;50.948;10.696;2023-04-19T08:59:48;9.10;99.90
30572;DHT22;17348;50.948;10.696;2023-04-19T09:02:55;9.10;99.90
30572;DHT22;17348;50.948;10.696;2023-04-19T09:06:00;9.10;99.90
30572;DHT22;17348;50.948;10.696;2023-04-19T09:09:18;9.20;99.90
30572;DHT22;17348;50.948;10.696;2023-04-19T09:12:22;9.30;99.90
30572;DHT22;17348;50.948;10.696;2023-04-19T09:15:37;9.40;99.90
30572;DHT22;17348;50.948;10.696;2023-04-19T09:18:53;9.40;99.90
30572;DHT22;17348;50.948;10.696;2023-04-19T09:21:56;9.50;99.90
30572;DHT22;17348;50.948;10.696;2023-04-19T09:25:23;9.60;99.90
30572;DHT22;17348;50.948;10.696;2023-04-19T09:28:27;9.70;99.90
30572;DHT22;17348;50.948;10.696;2023-04-19T09:31:32;9.90;99.90
30572;DHT22;17348;50.948;10.696;2023-04-19T09:34:35;10.00;99.90
30572;DHT22;17348;50.948;10.696;2023-04-19T09:37:58;10.00;99.90
30572;DHT22;17348;50.948;10.696;2023-04-19T09:41:07;10.10;99.90
30572;DHT22;17348;50.948;10.696;2023-04-19T09:44:11;10.30;99.90
30572;DHT22;17348;50.948;10.696;2023-04-19T09:47:24;10.20;99.90
30572;DHT22;17348;50.948;10.696;2023-04-19T09:50:27;10.20;99.90
30572;DHT22;17348;50.948;10.696;2023-04-19T09:53:30;10.30;99.90
30572;DHT22;17348;50.948;10.696;2023-04-19T09:56:35;10.30;99.90
30572;DHT22;17348;50.948;10.696;2023-04-19T09:59:37;10.20;99.90
30572;DHT22;17348;50.948;10.696;2023-04-19T10:02:41;10.30;99.90
30572;DHT22;17348;50.948;10.696;2023-04-19T10:05:44;10.40;99.90
30572;DHT22;17348;50.948;10.696;2023-04-19T10:08:48;10.40;99.90
30572;DHT22;17348;50.948;10.696;2023-04-19T10:11:52;10.50;99.90
30572;DHT22;17348;50.948;10.696;2023-04-19T10:14:55;10.60;99.90
30572;DHT22;17348;50.948;10.696;2023-04-19T10:18:01;10.70;99.90
30572;DHT22;17348;50.948;10.696;2023-04-19T10:21:06;10.90;99.90
30572;DHT22;17348;50.948;10.696;2023-04-19T10:24:12;11.10;99.90
30572;DHT22;17348;50.948;10.696;2023-04-19T10:27:14;11.50;99.90
30572;DHT22;17348;50.948;10.696;2023-04-19T10:30:18;11.70;99.90
30572;DHT22;17348;50.948;10.696;2023-04-19T10:33:26;11.70;99.90
30572;DHT22;17348;50.948;10.696;2023-04-19T10:36:28;11.80;99.30
30572;DHT22;17348;50.948;10.696;2023-04-19T10:39:40;11.80;97.50
30572;DHT22;17348;50.948;10.696;2023-04-19T10:43:14;11.50;96.80
30572;DHT22;17348;50.948;10.696;2023-04-19T10:46:35;11.50;97.90
30572;DHT22;17348;50.948;10.696;2023-04-19T10:49:45;11.60;98.20
30572;DHT22;17348;50.948;10.696;2023-04-19T10:52:47;11.70;98.00
30572;DHT22;17348;50.948;10.696;2023-04-19T10:55:50;11.70;97.80
30572;DHT22;17348;50.948;10.696;2023-04-19T10:59:12;11.60;98.30
30572;DHT22;17348;50.948;10.696;2023-04-19T11:02:30;11.60;99.00
30572;DHT22;17348;50.948;10.696;2023-04-19T11:06:14;11.70;99.10
30572;DHT22;17348;50.948;10.696;2023-04-19T11:09:21;11.80;99.60
30572;DHT22;17348;50.948;10.696;2023-04-19T11:12:23;11.80;99.90
30572;DHT22;17348;50.948;10.696;2023-04-19T11:15:26;11.80;99.90
30572;DHT22;17348;50.948;10.696;2023-04-19T11:18:28;11.80;99.90
30572;DHT22;17348;50.948;10.696;2023-04-19T11:21:32;11.80;99.90
30572;DHT22;17348;50.948;10.696;2023-04-19T11:24:44;11.80;99.90
30572;DHT22;17348;50.948;10.696;2023-04-19T11:27:49;11.80;99.90
30572;DHT22;17348;50.948;10.696;2023-04-19T11:30:53;11.90;99.90
30572;DHT22;17348;50.948;10.696;2023-04-19T11:33:58;12.00;99.10
30572;DHT22;17348;50.948;10.696;2023-04-19T11:37:01;12.10;99.10
30572;DHT22;17348;50.948;10.696;2023-04-19T11:40:06;12.20;99.50
30572;DHT22;17348;50.948;10.696;2023-04-19T11:43:09;12.20;98.90
30572;DHT22;17348;50.948;10.696;2023-04-19T11:46:12;12.40;99.40
30572;DHT22;17348;50.948;10.696;2023-04-19T11:49:25;12.40;98.90
30572;DHT22;17348;50.948;10.696;2023-04-19T11:52:29;12.20;98.10
30572;DHT22;17348;50.948;10.696;2023-04-19T11:55:32;12.20;98.20
30572;DHT22;17348;50.948;10.696;2023-04-19T11:58:36;12.20;98.50
30572;DHT22;17348;50.948;10.696;2023-04-19T12:01:40;12.30;98.60
30572;DHT22;17348;50.948;10.696;2023-04-19T12:04:42;12.20;99.50
30572;DHT22;17348;50.948;10.696;2023-04-19T12:08:00;12.10;99.20
30572;DHT22;17348;50.948;10.696;2023-04-19T12:11:04;12.20;97.50
30572;DHT22;17348;50.948;10.696;2023-04-19T12:14:07;12.30;96.50
30572;DHT22;17348;50.948;10.696;2023-04-19T12:17:10;12.30;97.10
30572;DHT22;17348;50.948;10.696;2023-04-19T12:20:28;12.50;97.70
30572;DHT22;17348;50.948;10.696;2023-04-19T12:23:31;12.60;97.90
30572;DHT22;17348;50.948;10.696;2023-04-19T12:26:34;12.60;97.50
30572;DHT22;17348;50.948;10.696;2023-04-19T12:29:37;12.70;97.90
30572;DHT22;17348;50.948;10.696;2023-04-19T12:32:40;12.60;97.60
30572;DHT22;17348;50.948;10.696;2023-04-19T12:35:42;12.70;97.30
30572;DHT22;17348;50.948;10.696;2023-04-19T12:38:46;12.60;97.00
30572;DHT22;17348;50.948;10.696;2023-04-19T12:41:49;12.30;96.60
30572;DHT22;17348;50.948;10.696;2023-04-19T12:44:51;12.20;97.60
30572;DHT22;17348;50.948;10.696;2023-04-19T12:47:53;12.00;97.70
30572;DHT22;17348;50.948;10.696;2023-04-19T12:50:56;11.90;97.80
30572;DHT22;17348;50.948;10.696;2023-04-19T12:53:59;11.90;98.00
30572;DHT22;17348;50.948;10.696;2023-04-19T12:57:02;12.00;98.20
30572;DHT22;17348;50.948;10.696;2023-04-19T13:00:06;11.90;96.80
30572;DHT22;17348;50.948;10.696;2023-04-19T13:03:09;11.90;96.70
30572;DHT22;17348;50.948;10.696;2023-04-19T13:06:12;11.80;97.20
30572;DHT22;17348;50.948;10.696;2023-04-19T13:09:18;11.70;97.80
30572;DHT22;17348;50.948;10.696;2023-04-19T13:12:20;11.60;98.30
30572;DHT22;17348;50.948;10.696;2023-04-19T13:15:24;11.70;96.30
30572;DHT22;17348;50.948;10.696;2023-04-19T13:18:26;11.70;96.10
30572;DHT22;17348;50.948;10.696;2023-04-19T13:21:29;11.70;96.30
30572;DHT22;17348;50.948;10.696;2023-04-19T13:24:34;11.50;96.60
30572;DHT22;17348;50.948;10.696;2023-04-19T13:27:36;11.40;96.80
30572;DHT22;17348;50.948;10.696;2023-04-19T13:30:38;11.50;96.80
30572;DHT22;17348;50.948;10.696;2023-04-19T13:33:41;11.70;96.10
30572;DHT22;17348;50.948;10.696;2023-04-19T13:36:43;11.70;96.10
30572;DHT22;17348;50.948;10.696;2023-04-19T13:39:47;11.80;96.30
30572;DHT22;17348;50.948;10.696;2023-04-19T13:42:50;12.10;95.60
30572;DHT22;17348;50.948;10.696;2023-04-19T13:45:54;12.00;95.50
30572;DHT22;17348;50.948;10.696;2023-04-19T13:48:56;11.90;95.60
30572;DHT22;17348;50.948;10.696;2023-04-19T13:52:01;11.60;96.50
30572;DHT22;17348;50.948;10.696;2023-04-19T13:55:06;11.50;96.70
30572;DHT22;17348;50.948;10.696;2023-04-19T13:58:08;11.60;97.30
30572;DHT22;17348;50.948;10.696;2023-04-19T14:01:10;11.70;97.40
30572;DHT22;17348;50.948;10.696;2023-04-19T14:04:13;12.00;95.30
30572;DHT22;17348;50.948;10.696;2023-04-19T14:07:15;12.10;95.10
30572;DHT22;17348;50.948;10.696;2023-04-19T14:10:19;12.20;94.90
30572;DHT22;17348;50.948;10.696;2023-04-19T14:13:22;12.50;94.30
30572;DHT22;17348;50.948;10.696;2023-04-19T14:16:24;12.50;93.40
30572;DHT22;17348;50.948;10.696;2023-04-19T14:19:26;12.60;91.80
30572;DHT22;17348;50.948;10.696;2023-04-19T14:22:29;12.50;91.30
30572;DHT22;17348;50.948;10.696;2023-04-19T14:25:33;12.60;92.30
30572;DHT22;17348;50.948;10.696;2023-04-19T14:28:36;12.70;92.00
30572;DHT22;17348;50.948;10.696;2023-04-19T14:31:39;12.60;92.50
30572;DHT22;17348;50.948;10.696;2023-04-19T14:34:41;12.40;92.60
30572;DHT22;17348;50.948;10.696;2023-04-19T14:37:44;12.30;93.30
30572;DHT22;17348;50.948;10.696;2023-04-19T14:40:48;12.20;93.30
30572;DHT22;17348;50.948;10.696;2023-04-19T14:43:50;12.00;94.30
30572;DHT22;17348;50.948;10.696;2023-04-19T14:46:53;11.70;95.50
30572;DHT22;17348;50.948;10.696;2023-04-19T14:49:55;11.60;96.80
30572;DHT22;17348;50.948;10.696;2023-04-19T14:52:57;11.60;97.10
30572;DHT22;17348;50.948;10.696;2023-04-19T14:56:03;11.50;97.10
30572;DHT22;17348;50.948;10.696;2023-04-19T14:59:06;11.30;97.00
30572;DHT22;17348;50.948;10.696;2023-04-19T15:02:09;11.30;97.40
30572;DHT22;17348;50.948;10.696;2023-04-19T15:05:13;11.60;98.20
30572;DHT22;17348;50.948;10.696;2023-04-19T15:08:15;11.80;98.60
30572;DHT22;17348;50.948;10.696;2023-04-19T15:11:19;11.60;99.90
30572;DHT22;17348;50.948;10.696;2023-04-19T15:14:22;11.10;99.90
30572;DHT22;17348;50.948;10.696;2023-04-19T15:17:24;10.80;99.90
30572;DHT22;17348;50.948;10.696;2023-04-19T15:20:27;10.60;99.90
30572;DHT22;17348;50.948;10.696;2023-04-19T15:23:29;10.50;99.90
30572;DHT22;17348;50.948;10.696;2023-04-19T15:26:33;10.50;99.90
30572;DHT22;17348;50.948;10.696;2023-04-19T15:29:36;10.50;99.90
30572;DHT22;17348;50.948;10.696;2023-04-19T15:32:39;10.50;99.90
30572;DHT22;17348;50.948;10.696;2023-04-19T15:35:41;10.50;99.90
30572;DHT22;17348;50.948;10.696;2023-04-19T15:38:44;10.50;99.90
30572;DHT22;17348;50.948;10.696;2023-04-19T15:41:48;10.50;99.90
30572;DHT22;17348;50.948;10.696;2023-04-19T15:44:50;10.50;99.90
30572;DHT22;17348;50.948;10.696;2023-04-19T15:47:52;10.70;99.90
30572;DHT22;17348;50.948;10.696;2023-04-19T15:50:55;10.90;99.90
30572;DHT22;17348;50.948;10.696;2023-04-19T15:53:57;11.00;99.90
30572;DHT22;17348;50.948;10.696;2023-04-19T15:57:01;11.20;99.90
30572;DHT22;17348;50.948;10.696;2023-04-19T16:00:05;11.40;99.90
30572;DHT22;17348;50.948;10.696;2023-04-19T16:03:09;11.60;99.70
30572;DHT22;17348;50.948;10.696;2023-04-19T16:06:12;11.70;99.10
30572;DHT22;17348;50.948;10.696;2023-04-19T16:09:14;11.80;98.70
30572;DHT22;17348;50.948;10.696;2023-04-19T16:12:18;11.90;99.40
30572;DHT22;17348;50.948;10.696;2023-04-19T16:15:21;12.00;99.40
30572;DHT22;17348;50.948;10.696;2023-04-19T16:18:23;12.00;99.30
30572;DHT22;17348;50.948;10.696;2023-04-19T16:21:26;12.00;99.30
30572;DHT22;17348;50.948;10.696;2023-04-19T16:24:28;11.80;98.70
30572;DHT22;17348;50.948;10.696;2023-04-19T16:27:32;11.70;99.20
30572;DHT22;17348;50.948;10.696;2023-04-19T16:30:35;11.60;99.90
30572;DHT22;17348;50.948;10.696;2023-04-19T16:33:37;11.40;99.40
30572;DHT22;17348;50.948;10.696;2023-04-19T16:36:39;11.40;99.90
30572;DHT22;17348;50.948;10.696;2023-04-19T16:39:44;11.40;99.90
30572;DHT22;17348;50.948;10.696;2023-04-19T16:42:48;11.20;99.50
30572;DHT22;17348;50.948;10.696;2023-04-19T16:45:50;11.00;99.90
30572;DHT22;17348;50.948;10.696;2023-04-19T16:48:53;10.90;99.90
30572;DHT22;17348;50.948;10.696;2023-04-19T16:51:56;10.90;99.90
30572;DHT22;17348;50.948;10.696;2023-04-19T16:54:58;10.90;99.90
30572;DHT22;17348;50.948;10.696;2023-04-19T16:58:04;10.90;99.90
30572;DHT22;17348;50.948;10.696;2023-04-19T17:01:10;10.90;99.90
30572;DHT22;17348;50.948;10.696;2023-04-19T17:04:12;11.00;99.90
30572;DHT22;17348;50.948;10.696;2023-04-19T17:07:15;11.00;99.90
30572;DHT22;17348;50.948;10.696;2023-04-19T17:10:17;10.90;99.90
30572;DHT22;17348;50.948;10.696;2023-04-19T17:13:21;10.70;99.90
30572;DHT22;17348;50.948;10.696;2023-04-19T17:16:24;10.50;99.90
30572;DHT22;17348;50.948;10.696;2023-04-19T17:19:29;10.40;99.90
30572;DHT22;17348;50.948;10.696;2023-04-19T17:22:31;10.30;99.90
30572;DHT22;17348;50.948;10.696;2023-04-19T17:25:34;10.20;99.90
30572;DHT22;17348;50.948;10.696;2023-04-19T17:28:38;10.20;99.90
30572;DHT22;17348;50.948;10.696;2023-04-19T17:31:41;10.10;99.90
30572;DHT22;17348;50.948;10.696;2023-04-19T17:34:44;10.10;99.90
30572;DHT22;17348;50.948;10.696;2023-04-19T17:37:46;10.10;99.90
30572;DHT22;17348;50.948;10.696;2023-04-19T17:40:49;10.20;99.90
30572;DHT22;17348;50.948;10.696;2023-04-19T17:43:53;10.10;99.90
30572;DHT22;17348;50.948;10.696;2023-04-19T17:46:55;10.10;99.90
30572;DHT22;17348;50.948;10.696;2023-04-19T17:50:04;10.10;99.90
30572;DHT22;17348;50.948;10.696;2023-04-19T17:53:07;10.10;99.90
30572;DHT22;17348;50.948;10.696;2023-04-19T17:56:09;10.10;99.90
30572;DHT22;17348;50.948;10.696;2023-04-19T17:59:13;10.00;99.90
30572;DHT22;17348;50.948;10.696;2023-04-19T18:02:16;10.00;99.90
30572;DHT22;17348;50.948;10.696;2023-04-19T18:05:18;9.90;99.90
30572;DHT22;17348;50.948;10.696;2023-04-19T18:08:20;9.90;99.90
30572;DHT22;17348;50.948;10.696;2023-04-19T18:11:23;9.70;99.90
30572;DHT22;17348;50.948;10.696;2023-04-19T18:14:27;9.60;99.90
30572;DHT22;17348;50.948;10.696;2023-04-19T18:17:29;9.50;99.90
30572;DHT22;17348;50.948;10.696;2023-04-19T18:20:32;9.40;99.90
30572;DHT22;17348;50.948;10.696;2023-04-19T18:23:35;9.30;99.90
30572;DHT22;17348;50.948;10.696;2023-04-19T18:26:38;9.20;99.90
30572;DHT22;17348;50.948;10.696;2023-04-19T18:29:42;9.10;99.90
30572;DHT22;17348;50.948;10.696;2023-04-19T18:32:45;9.10;99.90
30572;DHT22;17348;50.948;10.696;2023-04-19T18:35:48;9.00;99.90
30572;DHT22;17348;50.948;10.696;2023-04-19T18:38:50;9.00;99.90
30572;DHT22;17348;50.948;10.696;2023-04-19T18:41:53;8.90;99.90
30572;DHT22;17348;50.948;10.696;2023-04-19T18:44:57;9.00;99.90
30572;DHT22;17348;50.948;10.696;2023-04-19T18:47:59;8.90;99.90
30572;DHT22;17348;50.948;10.696;2023-04-19T18:51:02;8.90;99.90
30572;DHT22;17348;50.948;10.696;2023-04-19T18:54:07;8.90;99.90
30572;DHT22;17348;50.948;10.696;2023-04-19T18:57:10;8.90;99.90
30572;DHT22;17348;50.948;10.696;2023-04-19T19:00:15;8.90;99.90
30572;DHT22;17348;50.948;10.696;2023-04-19T19:03:20;8.90;99.90
30572;DHT22;17348;50.948;10.696;2023-04-19T19:06:24;8.90;99.90
30572;DHT22;17348;50.948;10.696;2023-04-19T19:09:26;8.90;99.90
30572;DHT22;17348;50.948;10.696;2023-04-19T19:12:29;9.00;99.90